Time;durP1;ratioP1;P1;durP2;ratioP2;P2;SDS_P1;SDS_P2;PMS_P1;PMS_P2;Temp;Humidity;BMP_temperature;BMP_pressure;BME280_temperature;BME280_humidity;BME280_pressure;Samples;Min_cycle;Max_cycle;Signal;HPM_P1;HPM_P2
2021/05/14 00:02:17;;;;;;;1.30;1.13;;;;;;;;;;5082053;28;20195;-77
2021/05/14 00:04:43;;;;;;;1.47;1.20;;;;;;;;;;5076393;28;20462;-77
2021/05/14 00:07:09;;;;;;;1.58;1.40;;;;;;;;;;5076794;28;20433;-77
2021/05/14 00:09:35;;;;;;;2.88;1.30;;;;;;;;;;5077055;28;20223;-77
2021/05/14 00:12:01;;;;;;;1.30;1.08;;;;;;;;;;5074750;28;20191;-77
2021/05/14 00:14:27;;;;;;;1.45;1.30;;;;;;;;;;5078348;28;20208;-77
2021/05/14 00:16:53;;;;;;;3.13;1.50;;;;;;;;;;5078644;28;20176;-77
2021/05/14 00:19:19;;;;;;;2.03;1.10;;;;;;;;;;5075334;28;20208;-77
2021/05/14 00:21:45;;;;;;;3.17;1.10;;;;;;;;;;5082531;28;20438;-78
2021/05/14 00:24:11;;;;;;;1.83;0.93;;;;;;;;;;5074780;28;20434;-77
2021/05/14 00:26:37;;;;;;;1.75;1.20;;;;;;;;;;5073246;28;20185;-77
2021/05/14 00:29:03;;;;;;;2.50;1.53;;;;;;;;;;5080144;28;20187;-77
2021/05/14 00:31:29;;;;;;;2.17;1.10;;;;;;;;;;5075886;28;20442;-77
2021/05/14 00:33:55;;;;;;;1.10;1.00;;;;;;;;;;5078185;28;20435;-77
2021/05/14 00:36:21;;;;;;;4.72;1.30;;;;;;;;;;5073990;28;20226;-77
2021/05/14 00:38:47;;;;;;;2.65;1.33;;;;;;;;;;5075924;28;20694;-77
2021/05/14 00:41:13;;;;;;;1.40;1.07;;;;;;;;;;5077183;28;20192;-77
2021/05/14 00:43:39;;;;;;;1.77;1.23;;;;;;;;;;5091464;28;20443;-77
2021/05/14 00:46:05;;;;;;;2.20;1.20;;;;;;;;;;5077397;28;20173;-77
2021/05/14 00:48:31;;;;;;;3.90;1.70;;;;;;;;;;5078033;28;20236;-77
2021/05/14 00:50:57;;;;;;;2.47;1.50;;;;;;;;;;5075020;28;20208;-76
2021/05/14 00:53:23;;;;;;;3.05;1.20;;;;;;;;;;5076540;28;20181;-77
2021/05/14 00:55:49;;;;;;;1.95;0.98;;;;;;;;;;5091891;28;20248;-78
2021/05/14 00:58:15;;;;;;;2.03;1.10;;;;;;;;;;5076713;28;20180;-77
2021/05/14 01:00:41;;;;;;;3.97;1.40;;;;;;;;;;5080524;28;20172;-78
2021/05/14 01:03:13;;;;;;;3.08;1.50;;;;;;;;;;5074425;28;20195;-77
2021/05/14 01:05:40;;;;;;;1.20;1.05;;;;;;;;;;5075336;28;20199;-77
2021/05/14 01:08:07;;;;;;;1.15;1.05;;;;;;;;;;5089064;28;20184;-78
2021/05/14 01:10:33;;;;;;;2.28;1.20;;;;;;;;;;5074004;28;20212;-78
2021/05/14 01:12:59;;;;;;;1.65;1.20;;;;;;;;;;5077978;28;20172;-78
2021/05/14 01:15:25;;;;;;;1.50;1.38;;;;;;;;;;5077887;28;20173;-78
2021/05/14 01:17:51;;;;;;;3.13;1.70;;;;;;;;;;5076746;28;20216;-77
2021/05/14 01:20:17;;;;;;;2.95;1.15;;;;;;;;;;5077676;28;20203;-77
2021/05/14 01:22:44;;;;;;;1.45;1.10;;;;;;;;;;5091809;28;20181;-78
2021/05/14 01:25:10;;;;;;;3.95;1.25;;;;;;;;;;5080982;28;20195;-78
2021/05/14 01:27:36;;;;;;;3.58;1.20;;;;;;;;;;5075610;28;20176;-78
2021/05/14 01:30:02;;;;;;;4.47;1.20;;;;;;;;;;5077870;28;20813;-78
2021/05/14 01:32:28;;;;;;;3.00;1.20;;;;;;;;;;5078979;28;20963;-78
2021/05/14 01:34:54;;;;;;;1.90;1.00;;;;;;;;;;5092584;28;20183;-78
2021/05/14 01:37:20;;;;;;;1.53;1.27;;;;;;;;;;5074326;28;20445;-78
2021/05/14 01:39:46;;;;;;;3.03;1.37;;;;;;;;;;5080741;28;20482;-78
2021/05/14 01:42:12;;;;;;;3.55;1.40;;;;;;;;;;5077558;28;20449;-78
2021/05/14 01:44:38;;;;;;;4.05;1.35;;;;;;;;;;5076641;28;20184;-78
2021/05/14 01:47:04;;;;;;;1.30;1.20;;;;;;;;;;5079311;28;20184;-78
2021/05/14 01:49:30;;;;;;;2.28;1.27;;;;;;;;;;5089740;28;20200;-78
2021/05/14 01:51:56;;;;;;;1.35;1.00;;;;;;;;;;5077428;28;20176;-78
2021/05/14 01:54:22;;;;;;;2.70;1.10;;;;;;;;;;5073528;28;20662;-78
2021/05/14 01:56:49;;;;;;;3.83;1.10;;;;;;;;;;5073677;28;20489;-77
2021/05/14 01:59:16;;;;;;;3.45;1.30;;;;;;;;;;5083072;28;20184;-78
2021/05/14 02:01:42;;;;;;;3.83;1.38;;;;;;;;;;5079095;28;20192;-77
2021/05/14 02:04:09;;;;;;;1.42;1.23;;;;;;;;;;5080150;28;20199;-78
2021/05/14 02:06:35;;;;;;;3.17;1.10;;;;;;;;;;5079306;28;20193;-78
2021/05/14 02:09:01;;;;;;;2.38;1.35;;;;;;;;;;5079579;28;20184;-77
2021/05/14 02:11:27;;;;;;;2.00;1.30;;;;;;;;;;5079781;28;20177;-78
2021/05/14 02:13:53;;;;;;;2.17;1.25;;;;;;;;;;5096760;28;20179;-77
2021/05/14 02:16:20;;;;;;;1.33;1.23;;;;;;;;;;5078524;28;20172;-78
2021/05/14 02:18:46;;;;;;;3.33;1.15;;;;;;;;;;5084077;28;20168;-78
2021/05/14 02:21:12;;;;;;;2.20;1.40;;;;;;;;;;5082029;28;20199;-78
2021/05/14 02:23:38;;;;;;;1.40;1.23;;;;;;;;;;5087084;28;20642;-78
2021/05/14 02:26:04;;;;;;;1.80;1.27;;;;;;;;;;5083494;28;20209;-78
2021/05/14 02:28:30;;;;;;;3.47;1.55;;;;;;;;;;5092834;28;20195;-78
2021/05/14 02:30:56;;;;;;;2.53;1.20;;;;;;;;;;5075701;28;20614;-78
2021/05/14 02:33:23;;;;;;;2.88;1.20;;;;;;;;;;5080916;28;20181;-78
2021/05/14 02:35:49;;;;;;;7.05;1.35;;;;;;;;;;5078558;28;20185;-78
2021/05/14 02:38:15;;;;;;;3.30;1.43;;;;;;;;;;5084621;28;20189;-78
2021/05/14 02:40:41;;;;;;;2.45;1.30;;;;;;;;;;5080837;28;20515;-78
2021/05/14 02:43:07;;;;;;;2.47;1.23;;;;;;;;;;5078821;28;20204;-78
2021/05/14 02:45:33;;;;;;;1.65;1.13;;;;;;;;;;5078714;28;20173;-77
2021/05/14 02:47:59;;;;;;;2.25;1.35;;;;;;;;;;5081007;28;20193;-78
2021/05/14 02:50:25;;;;;;;1.70;1.42;;;;;;;;;;5080695;28;20220;-78
2021/05/14 02:52:51;;;;;;;4.20;1.25;;;;;;;;;;5080171;28;20196;-78
2021/05/14 02:55:17;;;;;;;4.35;1.60;;;;;;;;;;5079221;28;20179;-78
2021/05/14 02:57:44;;;;;;;1.52;1.10;;;;;;;;;;5082485;28;20176;-78
2021/05/14 03:00:11;;;;;;;2.08;1.27;;;;;;;;;;5081507;28;20216;-78
2021/05/14 03:02:37;;;;;;;7.05;1.45;;;;;;;;;;5077511;28;20192;-78
2021/05/14 03:05:03;;;;;;;4.15;1.60;;;;;;;;;;5079733;28;20184;-78
2021/05/14 03:07:29;;;;;;;2.17;1.40;;;;;;;;;;5076367;28;20188;-78
2021/05/14 03:09:55;;;;;;;3.38;1.25;;;;;;;;;;5084340;28;20224;-78
2021/05/14 03:12:21;;;;;;;1.38;1.27;;;;;;;;;;5075880;28;20248;-78
2021/05/14 03:14:47;;;;;;;2.60;1.33;;;;;;;;;;5076399;28;20200;-78
2021/05/14 03:17:13;;;;;;;2.63;1.50;;;;;;;;;;5078507;28;20185;-77
2021/05/14 03:19:39;;;;;;;2.57;1.43;;;;;;;;;;5081883;28;20242;-78
2021/05/14 03:22:05;;;;;;;1.50;1.15;;;;;;;;;;5082224;28;20419;-78
2021/05/14 03:24:32;;;;;;;5.10;1.60;;;;;;;;;;5079754;28;20168;-78
2021/05/14 03:26:58;;;;;;;2.80;1.35;;;;;;;;;;5078938;28;20185;-78
2021/05/14 03:29:23;;;;;;;1.90;1.17;;;;;;;;;;5076801;28;20268;-78
2021/05/14 03:31:50;;;;;;;4.50;1.87;;;;;;;;;;5094343;28;20432;-78
2021/05/14 03:34:16;;;;;;;2.88;1.27;;;;;;;;;;5076594;28;20453;-78
2021/05/14 03:36:42;;;;;;;2.40;1.50;;;;;;;;;;5077726;28;20168;-78
2021/05/14 03:39:08;;;;;;;1.60;1.50;;;;;;;;;;5079360;28;20434;-78
2021/05/14 03:41:49;;;;;;;1.60;1.50;;;;;;;;;;5076806;28;20169;-78
2021/05/14 03:44:15;;;;;;;1.35;1.10;;;;;;;;;;5073657;28;20236;-79
2021/05/14 03:46:42;;;;;;;4.70;1.48;;;;;;;;;;5082524;28;20184;-78
2021/05/14 03:49:08;;;;;;;1.48;1.38;;;;;;;;;;5081616;28;20187;-78
2021/05/14 03:51:40;;;;;;;2.65;1.52;;;;;;;;;;5077754;28;20179;-78
2021/05/14 03:54:06;;;;;;;2.25;1.50;;;;;;;;;;5079496;28;20203;-78
2021/05/14 03:56:33;;;;;;;1.77;1.55;;;;;;;;;;5078442;28;20268;-78
2021/05/14 03:59:00;;;;;;;2.08;1.50;;;;;;;;;;5079647;28;20202;-78
2021/05/14 04:01:27;;;;;;;1.77;1.23;;;;;;;;;;5075648;28;20180;-78
2021/05/14 04:03:53;;;;;;;5.03;2.15;;;;;;;;;;5082747;28;20229;-78
2021/05/14 04:06:19;;;;;;;2.10;1.30;;;;;;;;;;5075204;28;20213;-78
2021/05/14 04:08:45;;;;;;;2.43;1.80;;;;;;;;;;5075491;28;20232;-78
2021/05/14 04:16:25;;;;;;;1.70;1.60;;;;;;;;;;5075823;28;20188;-78
2021/05/14 04:18:51;;;;;;;2.03;1.30;;;;;;;;;;5077563;28;20173;-78
2021/05/14 04:21:17;;;;;;;3.55;1.73;;;;;;;;;;5079198;28;20454;-78
2021/05/14 04:23:43;;;;;;;5.90;1.90;;;;;;;;;;5075953;28;20189;-78
2021/05/14 04:26:09;;;;;;;3.38;1.70;;;;;;;;;;5077887;28;20188;-78
2021/05/14 04:28:35;;;;;;;2.40;1.27;;;;;;;;;;5090681;28;20196;-79
2021/05/14 04:31:01;;;;;;;2.33;1.95;;;;;;;;;;5077103;28;20490;-78
2021/05/14 04:33:27;;;;;;;3.97;2.70;;;;;;;;;;5076695;28;20208;-77
2021/05/14 04:35:54;;;;;;;3.00;1.77;;;;;;;;;;5076864;28;20444;-79
2021/05/14 04:38:20;;;;;;;3.95;1.90;;;;;;;;;;5077693;28;20450;-78
2021/05/14 04:40:46;;;;;;;6.75;2.08;;;;;;;;;;5092811;28;20185;-79
2021/05/14 04:43:12;;;;;;;5.35;1.83;;;;;;;;;;5077203;28;20194;-78
2021/05/14 04:45:38;;;;;;;1.95;1.60;;;;;;;;;;5076733;28;20514;-78
2021/05/14 04:48:05;;;;;;;5.10;1.73;;;;;;;;;;5077880;28;20195;-78
2021/05/14 04:50:32;;;;;;;4.05;2.22;;;;;;;;;;5075984;28;20197;-77
2021/05/14 04:53:02;;;;;;;6.45;2.53;;;;;;;;;;5078375;28;20180;-78
2021/05/14 04:55:28;;;;;;;2.88;1.80;;;;;;;;;;5077154;28;20181;-79
2021/05/14 04:57:54;;;;;;;3.95;1.90;;;;;;;;;;5079675;28;20168;-78
2021/05/14 05:00:20;;;;;;;2.50;2.13;;;;;;;;;;5076186;28;20195;-80
2021/05/14 05:02:46;;;;;;;5.93;2.20;;;;;;;;;;5073782;28;20461;-80
2021/05/14 05:05:12;;;;;;;4.85;2.22;;;;;;;;;;5076910;28;20224;-79
2021/05/14 05:07:38;;;;;;;6.05;2.17;;;;;;;;;;5090458;28;20184;-80
2021/05/14 05:10:04;;;;;;;7.40;1.77;;;;;;;;;;5075931;28;20684;-80
2021/05/14 05:12:30;;;;;;;4.05;2.45;;;;;;;;;;5073894;28;20419;-79
2021/05/14 05:14:56;;;;;;;3.57;2.40;;;;;;;;;;5068996;28;20244;-80
2021/05/14 05:17:22;;;;;;;10.77;3.17;;;;;;;;;;5077621;28;20423;-79
2021/05/14 05:19:48;;;;;;;7.10;2.30;;;;;;;;;;5078569;28;20446;-80
2021/05/14 05:22:14;;;;;;;2.50;1.65;;;;;;;;;;5076182;28;20426;-79
2021/05/14 05:24:40;;;;;;;5.85;2.28;;;;;;;;;;5081823;28;20219;-79
2021/05/14 05:27:07;;;;;;;2.37;1.83;;;;;;;;;;5077541;28;20222;-79
2021/05/14 05:29:35;;;;;;;4.20;1.92;;;;;;;;;;5075635;28;20494;-79
2021/05/14 05:32:01;;;;;;;7.05;2.67;;;;;;;;;;5079286;28;20181;-79
2021/05/14 05:34:28;;;;;;;3.43;2.17;;;;;;;;;;5078467;28;20219;-79
2021/05/14 05:36:54;;;;;;;3.67;1.77;;;;;;;;;;5081403;28;20426;-79
2021/05/14 05:39:20;;;;;;;2.80;1.55;;;;;;;;;;5080187;28;20176;-79
2021/05/14 05:41:46;;;;;;;2.60;1.75;;;;;;;;;;5083734;28;20190;-79
2021/05/14 05:44:12;;;;;;;2.07;1.87;;;;;;;;;;5083071;28;20208;-79
2021/05/14 05:46:38;;;;;;;2.30;2.10;;;;;;;;;;5075938;28;21003;-79
2021/05/14 05:49:04;;;;;;;4.35;2.28;;;;;;;;;;5079844;28;20429;-79
2021/05/14 05:51:31;;;;;;;2.28;1.70;;;;;;;;;;5083770;28;20176;-79
2021/05/14 05:53:57;;;;;;;3.92;1.92;;;;;;;;;;5077354;28;20185;-79
2021/05/14 05:56:26;;;;;;;3.10;2.22;;;;;;;;;;5080264;28;20248;-79
2021/05/14 05:58:52;;;;;;;4.45;2.47;;;;;;;;;;5079920;28;20180;-80
2021/05/14 06:01:19;;;;;;;7.35;2.40;;;;;;;;;;5083521;28;20180;-79
2021/05/14 06:03:45;;;;;;;5.50;2.00;;;;;;;;;;5083976;28;20173;-79
2021/05/14 06:06:14;;;;;;;6.17;2.87;;;;;;;;;;5081436;28;20222;-78
2021/05/14 06:08:40;;;;;;;6.97;2.40;;;;;;;;;;5080069;28;20435;-80
2021/05/14 06:11:06;;;;;;;3.05;2.40;;;;;;;;;;5080476;28;20242;-79
2021/05/14 06:13:33;;;;;;;2.90;2.35;;;;;;;;;;5078634;28;20206;-79
2021/05/14 06:16:00;;;;;;;2.92;2.38;;;;;;;;;;5083121;28;20202;-78
2021/05/14 06:18:30;;;;;;;2.95;1.90;;;;;;;;;;5087667;28;20180;-79
2021/05/14 06:20:58;;;;;;;3.58;1.95;;;;;;;;;;5083153;28;20191;-77
2021/05/14 06:23:24;;;;;;;3.03;2.20;;;;;;;;;;5077322;28;20187;-78
2021/05/14 06:25:50;;;;;;;5.10;2.50;;;;;;;;;;5079715;28;20260;-78
2021/05/14 06:28:23;;;;;;;4.17;2.63;;;;;;;;;;5077697;28;20492;-80
2021/05/14 06:30:49;;;;;;;3.70;2.25;;;;;;;;;;5094643;28;20579;-79
2021/05/14 06:33:15;;;;;;;6.90;2.40;;;;;;;;;;5079960;28;20188;-79
2021/05/14 06:35:42;;;;;;;5.85;3.28;;;;;;;;;;5080432;28;20180;-79
2021/05/14 06:38:08;;;;;;;3.40;2.58;;;;;;;;;;5073258;28;20268;-79
2021/05/14 06:40:35;;;;;;;3.40;2.47;;;;;;;;;;5081848;28;20211;-81
2021/05/14 06:43:01;;;;;;;3.78;2.33;;;;;;;;;;5078657;28;20260;-79
2021/05/14 06:45:27;;;;;;;5.22;2.13;;;;;;;;;;5095602;28;20199;-81
2021/05/14 06:47:53;;;;;;;7.10;2.28;;;;;;;;;;5079935;28;20204;-80
2021/05/14 06:50:19;;;;;;;4.35;2.72;;;;;;;;;;5075534;28;20196;-80
2021/05/14 06:52:45;;;;;;;2.97;2.00;;;;;;;;;;5079333;28;20181;-80
2021/05/14 06:55:11;;;;;;;4.20;2.30;;;;;;;;;;5083676;28;20177;-81
2021/05/14 06:57:38;;;;;;;3.03;2.05;;;;;;;;;;5083307;28;20414;-80
2021/05/14 07:00:04;;;;;;;5.63;3.03;;;;;;;;;;5080381;28;20188;-80
2021/05/14 07:02:30;;;;;;;6.03;2.55;;;;;;;;;;5078359;28;20185;-79
2021/05/14 07:04:56;;;;;;;4.13;2.00;;;;;;;;;;5093586;28;20255;-79
2021/05/14 07:07:22;;;;;;;5.77;2.50;;;;;;;;;;5079945;28;20188;-78
2021/05/14 07:09:48;;;;;;;10.35;3.10;;;;;;;;;;5082787;28;20512;-79
2021/05/14 07:12:14;;;;;;;2.47;2.25;;;;;;;;;;5081182;28;20195;-78
2021/05/14 07:14:40;;;;;;;4.07;2.80;;;;;;;;;;5081267;28;20653;-78
2021/05/14 07:17:07;;;;;;;5.82;2.42;;;;;;;;;;5079095;28;20599;-78
2021/05/14 07:19:33;;;;;;;5.15;2.50;;;;;;;;;;5092119;28;20258;-79
2021/05/14 07:21:59;;;;;;;2.03;1.83;;;;;;;;;;5081464;28;20204;-78
2021/05/14 07:24:25;;;;;;;4.47;2.47;;;;;;;;;;5073186;28;20610;-79
2021/05/14 07:26:51;;;;;;;4.70;2.13;;;;;;;;;;5078435;28;20181;-80
2021/05/14 07:29:17;;;;;;;4.38;2.58;;;;;;;;;;5081609;28;20192;-80
2021/05/14 07:31:43;;;;;;;5.30;2.30;;;;;;;;;;5079029;28;20191;-79
2021/05/14 07:34:09;;;;;;;4.25;2.33;;;;;;;;;;5076621;28;20430;-79
2021/05/14 07:36:35;;;;;;;2.90;2.57;;;;;;;;;;5080319;28;20176;-79
2021/05/14 07:39:01;;;;;;;5.93;2.73;;;;;;;;;;5078308;28;20490;-79
2021/05/14 07:41:27;;;;;;;3.00;2.13;;;;;;;;;;5074387;28;20435;-79
2021/05/14 07:43:53;;;;;;;3.33;2.08;;;;;;;;;;5082625;28;20236;-79
2021/05/14 07:46:20;;;;;;;2.53;2.15;;;;;;;;;;5080445;28;20177;-79
2021/05/14 07:48:47;;;;;;;4.47;2.58;;;;;;;;;;5077646;28;20211;-79
2021/05/14 07:51:13;;;;;;;2.15;1.95;;;;;;;;;;5075104;28;20246;-81
2021/05/14 07:53:39;;;;;;;3.80;1.60;;;;;;;;;;5080626;28;20180;-80
2021/05/14 07:56:05;;;;;;;4.30;2.30;;;;;;;;;;5078417;28;20180;-79
2021/05/14 07:58:31;;;;;;;3.80;2.10;;;;;;;;;;5079600;28;20188;-78
2021/05/14 08:00:57;;;;;;;3.17;2.38;;;;;;;;;;5078991;28;20204;-80
2021/05/14 08:03:23;;;;;;;3.00;1.80;;;;;;;;;;5074625;28;20650;-79
2021/05/14 08:05:50;;;;;;;3.75;2.03;;;;;;;;;;5070163;28;20435;-80
2021/05/14 08:08:18;;;;;;;1.70;1.60;;;;;;;;;;5076787;28;20195;-79
2021/05/14 08:10:44;;;;;;;3.65;2.55;;;;;;;;;;5074482;28;20213;-79
2021/05/14 08:13:10;;;;;;;1.88;1.40;;;;;;;;;;5076726;28;20177;-78
2021/05/14 08:15:38;;;;;;;1.50;1.40;;;;;;;;;;5076182;28;20679;-79
2021/05/14 08:18:04;;;;;;;2.75;1.27;;;;;;;;;;5081476;28;20943;-76
2021/05/14 08:20:30;;;;;;;1.95;1.40;;;;;;;;;;5076800;28;20189;-77
2021/05/14 08:22:56;;;;;;;2.67;1.30;;;;;;;;;;5082050;28;20516;-77
2021/05/14 08:25:22;;;;;;;2.80;1.43;;;;;;;;;;5076731;28;20430;-79
2021/05/14 08:27:48;;;;;;;2.47;1.20;;;;;;;;;;5081600;28;20439;-77
2021/05/14 08:30:15;;;;;;;1.13;1.03;;;;;;;;;;5077999;28;20422;-76
2021/05/14 08:32:41;;;;;;;1.98;1.15;;;;;;;;;;5077858;28;20445;-77
2021/05/14 08:35:08;;;;;;;5.88;1.58;;;;;;;;;;5080956;28;20262;-78
2021/05/14 08:37:35;;;;;;;1.50;1.40;;;;;;;;;;5076473;28;20240;-79
2021/05/14 08:40:01;;;;;;;2.03;1.67;;;;;;;;;;5074038;28;20234;-79
2021/05/14 08:42:28;;;;;;;1.70;1.60;;;;;;;;;;5081109;28;20200;-81
2021/05/14 08:44:54;;;;;;;2.05;1.33;;;;;;;;;;5078113;28;20176;-83
2021/05/14 08:47:21;;;;;;;1.77;1.53;;;;;;;;;;5075271;28;20193;-79
2021/05/14 08:49:48;;;;;;;1.70;1.55;;;;;;;;;;5074009;28;20462;-80
2021/05/14 08:52:16;;;;;;;2.95;2.30;;;;;;;;;;5074352;28;20172;-80
2021/05/14 08:54:44;;;;;;;3.53;2.05;;;;;;;;;;5078443;28;20160;-80
2021/05/14 08:57:11;;;;;;;2.75;1.48;;;;;;;;;;5078896;28;20244;-80
2021/05/14 08:59:37;;;;;;;4.35;2.13;;;;;;;;;;5081406;28;20185;-80
2021/05/14 09:02:03;;;;;;;2.90;1.92;;;;;;;;;;5081645;28;20195;-80
2021/05/14 09:04:33;;;;;;;3.45;1.70;;;;;;;;;;5090533;28;20184;-80
2021/05/14 09:07:00;;;;;;;3.58;1.92;;;;;;;;;;5080151;28;20167;-80
2021/05/14 09:09:27;;;;;;;3.13;1.70;;;;;;;;;;5077970;28;20220;-80
2021/05/14 09:11:53;;;;;;;2.63;1.83;;;;;;;;;;5074493;28;20212;-80
2021/05/14 09:14:32;;;;;;;3.78;2.17;;;;;;;;;;5076542;28;20424;-81
2021/05/14 09:17:06;;;;;;;2.55;1.70;;;;;;;;;;5078193;28;20177;-80
2021/05/14 09:19:36;;;;;;;3.03;2.20;;;;;;;;;;5076272;28;20173;-80
2021/05/14 09:22:12;;;;;;;2.28;1.80;;;;;;;;;;5079794;28;20522;-80
2021/05/14 09:24:38;;;;;;;3.20;2.00;;;;;;;;;;5076325;28;20188;-80
2021/05/14 09:27:23;;;;;;;2.95;2.03;;;;;;;;;;5074556;28;20549;-80
2021/05/14 09:29:49;;;;;;;2.88;2.38;;;;;;;;;;5075395;28;20308;-80
2021/05/14 09:32:22;;;;;;;2.20;1.88;;;;;;;;;;5078115;28;20181;-79
2021/05/14 09:34:49;;;;;;;2.33;2.03;;;;;;;;;;5076734;28;20224;-79
2021/05/14 09:37:16;;;;;;;2.00;1.85;;;;;;;;;;5074917;28;20255;-80
2021/05/14 09:39:42;;;;;;;5.32;1.95;;;;;;;;;;5076123;28;20176;-80
2021/05/14 09:42:08;;;;;;;4.80;2.30;;;;;;;;;;5078136;28;20191;-80
2021/05/14 09:44:34;;;;;;;1.90;1.70;;;;;;;;;;5075040;28;20188;-81
2021/05/14 09:47:00;;;;;;;3.10;1.70;;;;;;;;;;5078013;28;20264;-80
2021/05/14 09:49:30;;;;;;;4.10;2.40;;;;;;;;;;5074436;28;20443;-79
2021/05/14 09:51:57;;;;;;;2.03;1.38;;;;;;;;;;5081848;28;20705;-80
2021/05/14 09:54:31;;;;;;;1.55;1.45;;;;;;;;;;5074164;28;20311;-79
2021/05/14 09:59:53;;;;;;;2.53;1.80;;;;;;;;;;5074045;28;20646;-78
2021/05/14 10:02:23;;;;;;;2.38;1.80;;;;;;;;;;5076454;28;20199;-79
2021/05/14 10:04:50;;;;;;;1.98;1.77;;;;;;;;;;5077514;28;20192;-78
2021/05/14 10:07:17;;;;;;;2.78;1.75;;;;;;;;;;5080309;28;20197;-79
2021/05/14 10:09:45;;;;;;;2.33;1.42;;;;;;;;;;5074538;28;20221;-78
2021/05/14 10:12:12;;;;;;;1.48;1.38;;;;;;;;;;5078484;28;20195;-79
2021/05/14 10:14:38;;;;;;;4.05;2.50;;;;;;;;;;5075308;28;20181;-79
2021/05/14 10:17:04;;;;;;;6.07;1.95;;;;;;;;;;5076262;28;20189;-78
2021/05/14 10:19:30;;;;;;;2.67;1.95;;;;;;;;;;5079042;28;20260;-79
2021/05/14 10:21:57;;;;;;;2.10;1.52;;;;;;;;;;5081431;28;20176;-78
2021/05/14 10:24:41;;;;;;;3.30;1.50;;;;;;;;;;5077465;28;20181;-78
2021/05/14 10:27:13;;;;;;;1.15;1.05;;;;;;;;;;5080282;28;20650;-78
2021/05/14 10:29:42;;;;;;;2.70;1.58;;;;;;;;;;5077777;28;20204;-78
2021/05/14 10:32:08;;;;;;;1.40;1.30;;;;;;;;;;5077187;28;20181;-78
2021/05/14 10:34:34;;;;;;;2.13;1.57;;;;;;;;;;5082022;28;20191;-78
2021/05/14 10:37:00;;;;;;;1.80;1.50;;;;;;;;;;5085807;28;20419;-78
2021/05/14 10:39:34;;;;;;;3.20;1.80;;;;;;;;;;5076287;28;20610;-78
2021/05/14 10:42:01;;;;;;;2.85;1.15;;;;;;;;;;5080010;28;20169;-77
2021/05/14 10:44:40;;;;;;;1.10;1.02;;;;;;;;;;5079385;28;20193;-79
2021/05/14 10:47:26;;;;;;;1.23;1.02;;;;;;;;;;5094446;28;20599;-77
2021/05/14 10:50:02;;;;;;;2.35;0.90;;;;;;;;;;5066349;28;20216;-77
2021/05/14 10:52:30;;;;;;;0.98;0.98;;;;;;;;;;5077145;28;20181;-79
2021/05/14 10:54:57;;;;;;;2.22;0.90;;;;;;;;;;5080672;28;20180;-77
2021/05/14 10:57:41;;;;;;;1.20;1.00;;;;;;;;;;5077622;28;20253;-78
2021/05/14 11:00:26;;;;;;;1.38;1.00;;;;;;;;;;5073027;28;20185;-77
2021/05/14 11:03:13;;;;;;;2.60;1.00;;;;;;;;;;5078532;28;20206;-79
2021/05/14 11:05:41;;;;;;;2.20;1.05;;;;;;;;;;5075750;28;20184;-77
2021/05/14 11:08:32;;;;;;;1.35;0.98;;;;;;;;;;5080974;28;20273;-77
2021/05/14 11:11:00;;;;;;;1.45;0.95;;;;;;;;;;5092327;28;20231;-77
2021/05/14 11:13:49;;;;;;;1.60;0.90;;;;;;;;;;5076293;28;20185;-76
2021/05/14 11:16:34;;;;;;;1.02;0.93;;;;;;;;;;5082392;28;20169;-77
2021/05/14 11:19:16;;;;;;;0.80;0.80;;;;;;;;;;5088054;28;20164;-75
2021/05/14 11:21:59;;;;;;;1.52;1.42;;;;;;;;;;5077314;28;20176;-77
2021/05/14 11:24:30;;;;;;;0.90;0.90;;;;;;;;;;5076467;28;20177;-75
2021/05/14 11:27:03;;;;;;;1.20;0.95;;;;;;;;;;5076423;28;20188;-76
2021/05/14 11:29:33;;;;;;;1.40;1.30;;;;;;;;;;5077692;28;20189;-76
2021/05/14 11:32:18;;;;;;;1.02;0.93;;;;;;;;;;5078373;28;20206;-76
2021/05/14 11:34:56;;;;;;;2.15;1.00;;;;;;;;;;5076511;28;20186;-76
2021/05/14 11:37:23;;;;;;;1.70;0.98;;;;;;;;;;5076587;28;20200;-77
2021/05/14 11:39:49;;;;;;;2.30;2.15;;;;;;;;;;5075697;28;20179;-76
2021/05/14 11:42:19;;;;;;;1.25;1.10;;;;;;;;;;5076059;28;20189;-78
2021/05/14 11:45:14;;;;;;;1.30;0.95;;;;;;;;;;5074470;28;20651;-79
2021/05/14 11:47:47;;;;;;;2.20;0.90;;;;;;;;;;5062477;28;20197;-80
2021/05/14 11:50:19;;;;;;;1.48;1.00;;;;;;;;;;5075957;28;20201;-79
2021/05/14 11:52:45;;;;;;;4.40;1.15;;;;;;;;;;5089599;28;20204;-77
2021/05/14 11:55:13;;;;;;;1.20;0.80;;;;;;;;;;5075505;28;20176;-79
2021/05/14 11:57:39;;;;;;;6.10;1.90;;;;;;;;;;5097124;28;20907;-78
2021/05/14 12:00:10;;;;;;;3.17;1.00;;;;;;;;;;5079729;28;20191;-78
2021/05/14 12:02:46;;;;;;;1.27;1.10;;;;;;;;;;5072786;28;20185;-78
2021/05/14 12:05:13;;;;;;;0.90;0.90;;;;;;;;;;5090264;28;20283;-80
2021/05/14 12:07:41;;;;;;;2.38;1.10;;;;;;;;;;5080935;28;20242;-77
2021/05/14 12:10:08;;;;;;;4.90;1.30;;;;;;;;;;5077485;28;20223;-78
2021/05/14 12:12:38;;;;;;;1.60;1.15;;;;;;;;;;5077947;28;20514;-81
2021/05/14 12:15:10;;;;;;;1.92;1.30;;;;;;;;;;5078995;28;20184;-79
2021/05/14 12:17:36;;;;;;;4.22;1.77;;;;;;;;;;5075243;28;20177;-79
2021/05/14 12:20:13;;;;;;;2.95;1.55;;;;;;;;;;5081868;28;20181;-78
2021/05/14 12:22:46;;;;;;;6.78;2.10;;;;;;;;;;5090546;28;20196;-78
2021/05/14 12:25:13;;;;;;;1.58;1.48;;;;;;;;;;5080279;28;20164;-78
2021/05/14 12:27:39;;;;;;;2.60;2.40;;;;;;;;;;5079621;28;20173;-79
2021/05/14 12:30:05;;;;;;;2.95;2.65;;;;;;;;;;5078615;28;20204;-79
2021/05/14 12:32:31;;;;;;;2.00;1.35;;;;;;;;;;5076945;28;20292;-82
2021/05/14 12:34:57;;;;;;;7.23;2.20;;;;;;;;;;5077430;28;20208;-78
2021/05/14 12:37:23;;;;;;;5.65;2.50;;;;;;;;;;5079520;28;20423;-78
2021/05/14 12:39:50;;;;;;;5.15;1.60;;;;;;;;;;5075586;28;20188;-80
2021/05/14 12:42:29;;;;;;;5.80;1.55;;;;;;;;;;5079864;28;20192;-78
2021/05/14 12:44:55;;;;;;;2.25;1.73;;;;;;;;;;5077020;28;20192;-77
2021/05/14 12:47:23;;;;;;;3.35;1.65;;;;;;;;;;5077587;28;20204;-78
2021/05/14 12:49:55;;;;;;;2.72;1.55;;;;;;;;;;5077482;28;20208;-78
2021/05/14 12:52:28;;;;;;;2.40;1.55;;;;;;;;;;5076293;28;20160;-78
2021/05/14 12:54:54;;;;;;;2.42;1.23;;;;;;;;;;5081464;28;20179;-79
2021/05/14 12:57:28;;;;;;;150.23;15.48;;;;;;;;;;5079057;28;20259;-78
2021/05/14 12:59:54;;;;;;;6.90;1.90;;;;;;;;;;5079005;28;20180;-78
2021/05/14 13:02:25;;;;;;;6.43;2.03;;;;;;;;;;5077486;28;20180;-78
2021/05/14 13:04:59;;;;;;;2.78;2.05;;;;;;;;;;5071041;28;20611;-80
2021/05/14 13:07:25;;;;;;;6.35;2.50;;;;;;;;;;5078460;28;20264;-79
2021/05/14 13:09:51;;;;;;;3.55;1.27;;;;;;;;;;5077207;28;20216;-79
2021/05/14 13:12:18;;;;;;;4.32;1.35;;;;;;;;;;5073638;28;20230;-79
2021/05/14 13:14:44;;;;;;;4.05;1.20;;;;;;;;;;5073764;28;20256;-81
2021/05/14 13:17:10;;;;;;;3.10;1.20;;;;;;;;;;5080656;28;20184;-79
2021/05/14 13:19:36;;;;;;;1.98;1.30;;;;;;;;;;5091783;28;20183;-82
2021/05/14 13:22:02;;;;;;;1.70;1.50;;;;;;;;;;5076255;28;20178;-79
2021/05/14 13:24:28;;;;;;;1.60;1.00;;;;;;;;;;5090062;28;20750;-79
2021/05/14 13:26:54;;;;;;;2.87;1.53;;;;;;;;;;5071895;28;20184;-81
2021/05/14 13:29:20;;;;;;;3.30;1.55;;;;;;;;;;5079725;28;20444;-82
2021/05/14 13:31:47;;;;;;;3.90;2.00;;;;;;;;;;5068523;28;20181;-80
2021/05/14 13:34:12;;;;;;;2.45;1.20;;;;;;;;;;5075099;28;20171;-81
2021/05/14 13:36:39;;;;;;;1.30;1.10;;;;;;;;;;5076621;28;20191;-82
2021/05/14 13:39:05;;;;;;;1.30;1.20;;;;;;;;;;5078211;28;20449;-84
2021/05/14 13:41:33;;;;;;;1.67;1.23;;;;;;;;;;5076583;28;20332;-82
2021/05/14 13:43:59;;;;;;;1.35;0.85;;;;;;;;;;5076011;28;20191;-83
2021/05/14 13:46:25;;;;;;;1.63;1.30;;;;;;;;;;5079658;28;20197;-83
2021/05/14 13:48:51;;;;;;;1.40;1.30;;;;;;;;;;5077775;28;20168;-83
2021/05/14 13:51:17;;;;;;;1.27;1.10;;;;;;;;;;5075819;28;20473;-82
2021/05/14 13:53:43;;;;;;;1.53;0.93;;;;;;;;;;5077724;28;20453;-83
2021/05/14 13:56:09;;;;;;;1.03;0.93;;;;;;;;;;5084162;28;20434;-81
2021/05/14 13:58:35;;;;;;;1.67;0.90;;;;;;;;;;5082834;28;20429;-83
2021/05/14 14:01:01;;;;;;;1.20;1.03;;;;;;;;;;5085686;28;20536;-82
2021/05/14 14:03:30;;;;;;;1.20;1.00;;;;;;;;;;5078146;28;20792;-86
2021/05/14 14:05:56;;;;;;;1.55;1.00;;;;;;;;;;5079336;28;20688;-86
2021/05/14 14:08:22;;;;;;;1.10;1.00;;;;;;;;;;5079344;28;20190;-86
2021/05/14 14:10:48;;;;;;;2.72;1.80;;;;;;;;;;5082414;28;20318;-81
2021/05/14 14:13:14;;;;;;;1.67;1.55;;;;;;;;;;5079709;28;20182;-80
2021/05/14 14:15:41;;;;;;;1.10;1.00;;;;;;;;;;5079606;28;20168;-79
2021/05/14 14:18:07;;;;;;;1.90;1.20;;;;;;;;;;5077999;28;20255;-79
2021/05/14 14:20:33;;;;;;;1.83;1.73;;;;;;;;;;5078734;28;20322;-80
2021/05/14 14:22:59;;;;;;;2.65;2.08;;;;;;;;;;5081848;28;20184;-81
2021/05/14 14:25:25;;;;;;;2.65;1.60;;;;;;;;;;5078093;28;20614;-79
2021/05/14 14:27:52;;;;;;;1.27;1.17;;;;;;;;;;5084210;28;20234;-79
2021/05/14 14:30:18;;;;;;;1.50;1.40;;;;;;;;;;5081850;28;20208;-82
2021/05/14 14:32:44;;;;;;;2.30;2.10;;;;;;;;;;5078551;28;20208;-82
2021/05/14 14:35:13;;;;;;;1.83;1.73;;;;;;;;;;5077998;28;20666;-84
2021/05/14 14:37:40;;;;;;;2.63;1.25;;;;;;;;;;5076742;28;20181;-85
2021/05/14 14:40:06;;;;;;;1.10;1.02;;;;;;;;;;5081827;28;20264;-83
2021/05/14 14:42:32;;;;;;;0.85;0.85;;;;;;;;;;5082423;28;20181;-84
2021/05/14 14:51:17;;;;;;;0.90;0.90;;;;;;;;;;4980480;28;20253;-83
2021/05/14 14:57:07;;;;;;;1.67;1.00;;;;;;;;;;4981437;28;20574;-82
2021/05/14 15:00:02;;;;;;;1.10;1.00;;;;;;;;;;4982066;28;20183;-82
2021/05/14 15:02:42;;;;;;;1.45;1.05;;;;;;;;;;4878664;29;20205;-82
2021/05/14 15:05:12;;;;;;;1.60;1.05;;;;;;;;;;4887409;29;20207;-81